createdAt,value
2019-05-30T00:00:44.407Z,0.00
2019-05-30T00:01:44.424Z,0.00
2019-05-30T00:02:44.388Z,0.00
2019-05-30T00:03:44.376Z,0.00
2019-05-30T00:04:44.396Z,0.00
2019-05-30T00:05:44.408Z,0.00
2019-05-30T00:06:44.377Z,0.00
2019-05-30T00:07:44.328Z,0.00
2019-05-30T00:08:44.358Z,0.00
2019-05-30T00:09:44.362Z,0.00
2019-05-30T00:10:44.295Z,0.00
2019-05-30T00:11:44.293Z,0.00
2019-05-30T00:12:44.275Z,0.00
2019-05-30T00:13:44.288Z,0.00
2019-05-30T00:14:44.263Z,0.00
2019-05-30T00:15:44.242Z,0.00
2019-05-30T00:16:44.246Z,0.00
2019-05-30T00:17:44.232Z,0.00
2019-05-30T00:18:44.203Z,0.00
2019-05-30T00:19:44.222Z,0.00
2019-05-30T00:20:44.205Z,0.00
2019-05-30T00:21:44.203Z,0.00
2019-05-30T00:22:44.185Z,0.00
2019-05-30T00:23:44.165Z,0.00
2019-05-30T00:24:44.193Z,0.00
2019-05-30T00:25:44.144Z,0.00
2019-05-30T00:26:44.138Z,0.00
2019-05-30T00:27:55.059Z,0.00
2019-05-30T00:28:44.110Z,0.00
2019-05-30T00:29:44.086Z,0.00
2019-05-30T00:30:44.099Z,0.00
2019-05-30T00:31:44.078Z,0.00
2019-05-30T00:32:44.067Z,0.00
2019-05-30T00:33:44.058Z,0.00
2019-05-30T00:34:44.037Z,0.00
2019-05-30T00:35:44.050Z,0.00
2019-05-30T00:36:44.032Z,0.00
2019-05-30T00:37:44.021Z,0.00
2019-05-30T00:38:44.006Z,0.00
2019-05-30T00:39:43.998Z,0.00
2019-05-30T00:40:43.986Z,0.00
2019-05-30T00:41:43.975Z,0.00
2019-05-30T00:42:43.968Z,0.00
2019-05-30T00:43:43.944Z,0.00
2019-05-30T00:44:43.945Z,0.00
2019-05-30T00:45:43.942Z,0.00
2019-05-30T00:46:43.934Z,0.00
2019-05-30T00:47:43.905Z,0.00
2019-05-30T00:48:43.922Z,0.00
2019-05-30T00:49:43.924Z,0.00
2019-05-30T00:50:43.875Z,0.00
2019-05-30T00:51:43.895Z,0.00
2019-05-30T00:52:43.863Z,5.62
2019-05-30T00:53:43.859Z,5.62
2019-05-30T00:54:43.856Z,5.62
2019-05-30T00:55:43.863Z,5.62
2019-05-30T00:56:43.810Z,5.62
2019-05-30T00:57:43.792Z,5.62
2019-05-30T00:58:53.724Z,5.62
2019-05-30T00:59:43.769Z,5.62
2019-05-30T01:00:44.439Z,5.62
2019-05-30T01:01:43.799Z,5.62
2019-05-30T01:02:43.754Z,5.62
2019-05-30T01:03:43.727Z,5.62
2019-05-30T01:04:43.736Z,5.62
2019-05-30T01:05:43.717Z,5.62
2019-05-30T01:06:43.697Z,5.62
2019-05-30T01:07:43.740Z,5.62
2019-05-30T01:08:43.681Z,5.62
2019-05-30T01:09:43.689Z,5.62
2019-05-30T01:10:43.670Z,5.62
2019-05-30T01:11:43.655Z,5.62
2019-05-30T01:12:43.668Z,5.62
2019-05-30T01:13:43.645Z,11.25
2019-05-30T01:14:43.626Z,11.25
2019-05-30T01:15:43.606Z,11.25
2019-05-30T01:16:43.617Z,11.25
2019-05-30T01:17:43.643Z,11.25
2019-05-30T01:18:43.597Z,11.25
2019-05-30T01:19:43.594Z,11.25
2019-05-30T01:20:43.565Z,11.25
2019-05-30T01:21:43.555Z,11.25
2019-05-30T01:22:43.544Z,11.25
2019-05-30T01:23:43.554Z,11.25
2019-05-30T01:24:43.516Z,11.25
2019-05-30T01:25:43.510Z,11.25
2019-05-30T01:26:43.481Z,11.25
2019-05-30T01:27:43.492Z,11.25
2019-05-30T01:28:43.492Z,11.25
2019-05-30T01:29:55.419Z,11.25
2019-05-30T01:30:59.045Z,16.88
2019-05-30T01:31:44.427Z,16.88
2019-05-30T01:32:43.418Z,16.88
2019-05-30T01:33:43.417Z,16.88
2019-05-30T01:34:43.452Z,16.88
2019-05-30T01:35:43.398Z,16.88
2019-05-30T01:36:43.376Z,16.88
2019-05-30T01:37:43.378Z,16.88
2019-05-30T01:38:43.356Z,16.88
2019-05-30T01:39:43.361Z,16.88
2019-05-30T01:40:43.364Z,16.88
2019-05-30T01:41:43.356Z,16.88
2019-05-30T01:42:43.316Z,16.88
2019-05-30T01:43:43.309Z,16.88
2019-05-30T01:44:43.299Z,16.88
2019-05-30T01:45:43.299Z,22.50
2019-05-30T01:46:43.290Z,22.50
2019-05-30T01:47:43.279Z,22.50
2019-05-30T01:48:43.251Z,22.50
2019-05-30T01:49:43.256Z,22.50
2019-05-30T01:50:43.241Z,22.50
2019-05-30T01:51:43.224Z,22.50
2019-05-30T01:52:43.223Z,22.50
2019-05-30T01:53:43.205Z,22.50
2019-05-30T01:54:43.203Z,22.50
2019-05-30T01:55:43.253Z,22.50
2019-05-30T01:56:43.162Z,22.50
2019-05-30T01:57:43.164Z,22.50
2019-05-30T01:58:43.165Z,22.50
2019-05-30T01:59:43.132Z,22.50
2019-05-30T02:00:54.441Z,22.50
2019-05-30T02:01:43.121Z,28.12
2019-05-30T02:02:43.108Z,28.12
2019-05-30T02:03:43.099Z,28.12
2019-05-30T02:04:43.089Z,28.12
2019-05-30T02:05:43.116Z,28.12
2019-05-30T02:06:43.068Z,28.12
2019-05-30T02:07:43.046Z,28.12
2019-05-30T02:08:43.048Z,28.12
2019-05-30T02:09:43.027Z,28.12
2019-05-30T02:10:43.014Z,28.12
2019-05-30T02:11:43.061Z,28.12
2019-05-30T02:12:43.013Z,28.12
2019-05-30T02:13:42.986Z,28.12
2019-05-30T02:14:42.991Z,28.12
2019-05-30T02:15:42.964Z,28.12
2019-05-30T02:16:42.953Z,28.12
2019-05-30T02:17:42.968Z,28.12
2019-05-30T02:18:42.954Z,33.75
2019-05-30T02:19:42.927Z,33.75
2019-05-30T02:20:42.914Z,33.75
2019-05-30T02:21:42.903Z,33.75
2019-05-30T02:22:42.905Z,33.75
2019-05-30T02:23:42.890Z,33.75
2019-05-30T02:24:42.884Z,33.75
2019-05-30T02:25:42.865Z,33.75
2019-05-30T02:26:42.862Z,33.75
2019-05-30T02:27:42.861Z,33.75
2019-05-30T02:28:42.835Z,33.75
2019-05-30T02:29:42.826Z,33.75
2019-05-30T02:30:42.813Z,33.75
2019-05-30T02:31:53.361Z,33.75
2019-05-30T02:32:42.863Z,39.38
2019-05-30T02:33:42.768Z,39.38
2019-05-30T02:34:42.769Z,39.38
2019-05-30T02:35:42.760Z,39.38
2019-05-30T02:36:42.757Z,39.38
2019-05-30T02:37:42.741Z,39.38
2019-05-30T02:38:42.726Z,39.38
2019-05-30T02:39:42.712Z,39.38
2019-05-30T02:40:42.709Z,39.38
2019-05-30T02:41:42.700Z,39.38
2019-05-30T02:42:42.683Z,39.38
2019-05-30T02:43:42.705Z,45.00
2019-05-30T02:44:42.669Z,45.00
2019-05-30T02:45:42.663Z,45.00
2019-05-30T02:46:42.637Z,45.00
2019-05-30T02:47:42.638Z,45.00
2019-05-30T02:48:58.037Z,45.00
2019-05-30T02:49:43.629Z,45.00
2019-05-30T02:50:42.611Z,45.00
2019-05-30T02:51:42.596Z,45.00
2019-05-30T02:52:42.577Z,50.62
2019-05-30T02:53:42.579Z,50.62
2019-05-30T02:54:42.563Z,50.62
2019-05-30T02:55:42.538Z,50.62
2019-05-30T02:56:42.539Z,50.62
2019-05-30T02:57:42.556Z,50.62
2019-05-30T02:58:42.521Z,50.62
2019-05-30T02:59:42.520Z,50.62
2019-05-30T03:00:42.516Z,50.62
2019-05-30T03:01:58.890Z,56.25
2019-05-30T03:02:52.788Z,56.25
2019-05-30T03:03:42.471Z,56.25
2019-05-30T03:04:42.478Z,56.25
2019-05-30T03:05:42.434Z,56.25
2019-05-30T03:06:42.417Z,56.25
2019-05-30T03:07:42.420Z,56.25
2019-05-30T03:08:42.419Z,56.25
2019-05-30T03:09:42.396Z,56.25
2019-05-30T03:10:42.409Z,56.25
2019-05-30T03:11:42.382Z,56.25
2019-05-30T03:12:42.379Z,56.25
2019-05-30T03:13:42.357Z,56.25
2019-05-30T03:14:42.363Z,56.25
2019-05-30T03:15:42.373Z,56.25
2019-05-30T03:16:42.330Z,56.25
2019-05-30T03:17:42.307Z,61.88
2019-05-30T03:18:42.307Z,61.88
2019-05-30T03:19:42.284Z,61.88
2019-05-30T03:20:42.279Z,61.88
2019-05-30T03:21:42.286Z,61.88
2019-05-30T03:22:42.254Z,61.88
2019-05-30T03:23:42.243Z,61.88
2019-05-30T03:24:42.238Z,61.88
2019-05-30T03:25:42.224Z,61.88
2019-05-30T03:26:42.223Z,61.88
2019-05-30T03:27:42.216Z,61.88
2019-05-30T03:28:42.215Z,61.88
2019-05-30T03:29:42.186Z,61.88
2019-05-30T03:30:42.189Z,61.88
2019-05-30T03:31:42.175Z,61.88
2019-05-30T03:33:05.340Z,61.88
2019-05-30T03:33:52.037Z,61.88
2019-05-30T03:34:42.141Z,61.88
2019-05-30T03:35:43.916Z,61.88
2019-05-30T03:36:42.165Z,61.88
2019-05-30T03:37:42.097Z,61.88
2019-05-30T03:38:42.087Z,61.88
2019-05-30T03:39:42.088Z,61.88
2019-05-30T03:40:42.065Z,61.88
2019-05-30T03:41:42.047Z,61.88
2019-05-30T03:42:42.049Z,61.88
2019-05-30T03:43:42.030Z,61.88
2019-05-30T03:44:42.018Z,61.88
2019-05-30T03:45:42.007Z,61.88
2019-05-30T03:46:42.013Z,61.88
2019-05-30T03:47:42.066Z,61.88
2019-05-30T03:48:41.997Z,61.88
2019-05-30T03:49:42.007Z,61.88
2019-05-30T03:50:41.962Z,61.88
2019-05-30T03:51:41.957Z,61.88
2019-05-30T03:52:41.991Z,67.50
2019-05-30T03:53:41.947Z,67.50
2019-05-30T03:54:41.931Z,67.50
2019-05-30T03:55:41.935Z,67.50
2019-05-30T03:56:41.923Z,67.50
2019-05-30T03:57:41.900Z,67.50
2019-05-30T03:58:41.904Z,67.50
2019-05-30T03:59:41.865Z,67.50
2019-05-30T04:00:41.854Z,67.50
2019-05-30T04:01:41.865Z,67.50
2019-05-30T04:02:55.934Z,67.50
2019-05-30T04:03:42.852Z,67.50
2019-05-30T04:04:52.430Z,73.12
2019-05-30T04:05:41.812Z,73.12
2019-05-30T04:06:41.803Z,73.12
2019-05-30T04:07:41.769Z,73.12
2019-05-30T04:08:41.802Z,73.12
2019-05-30T04:09:41.760Z,73.12
2019-05-30T04:10:41.753Z,73.12
2019-05-30T04:11:41.750Z,73.12
2019-05-30T04:12:41.727Z,73.12
2019-05-30T04:13:41.711Z,73.12
2019-05-30T04:14:41.708Z,73.12
2019-05-30T04:15:41.689Z,78.75
2019-05-30T04:16:41.680Z,78.75
2019-05-30T04:17:41.670Z,78.75
2019-05-30T04:18:41.660Z,78.75
2019-05-30T04:19:41.664Z,78.75
2019-05-30T04:20:41.640Z,78.75
2019-05-30T04:21:41.657Z,78.75
2019-05-30T04:22:41.617Z,78.75
2019-05-30T04:23:41.617Z,78.75
2019-05-30T04:24:41.619Z,78.75
2019-05-30T04:25:41.599Z,84.38
2019-05-30T04:26:41.598Z,84.38
2019-05-30T04:27:41.564Z,84.38
2019-05-30T04:28:41.577Z,84.38
2019-05-30T04:29:41.588Z,84.38
2019-05-30T04:30:41.555Z,84.38
2019-05-30T04:31:41.571Z,84.38
2019-05-30T04:32:41.524Z,84.38
2019-05-30T04:33:41.517Z,84.38
2019-05-30T04:34:41.483Z,84.38
2019-05-30T04:35:52.901Z,90.00
2019-05-30T04:36:41.470Z,90.00
2019-05-30T04:37:41.453Z,90.00
2019-05-30T04:38:41.441Z,90.00
2019-05-30T04:39:41.443Z,90.00
2019-05-30T04:40:41.443Z,90.00
2019-05-30T04:41:41.411Z,90.00
2019-05-30T04:42:41.412Z,90.00
2019-05-30T04:43:41.403Z,90.00
2019-05-30T04:44:41.393Z,95.62
2019-05-30T04:45:41.394Z,95.62
2019-05-30T04:46:41.360Z,95.62
2019-05-30T04:47:41.403Z,95.62
2019-05-30T04:48:41.356Z,95.62
2019-05-30T04:49:41.339Z,95.62
2019-05-30T04:50:41.345Z,95.62
2019-05-30T04:51:41.350Z,95.62
2019-05-30T04:52:41.309Z,95.62
2019-05-30T04:53:41.366Z,101.25
2019-05-30T04:54:41.287Z,101.25
2019-05-30T04:55:41.288Z,101.25
2019-05-30T04:56:41.269Z,101.25
2019-05-30T04:57:41.310Z,101.25
2019-05-30T04:58:42.554Z,101.25
2019-05-30T04:59:41.226Z,101.25
2019-05-30T05:00:41.239Z,101.25
2019-05-30T05:01:41.233Z,101.25
2019-05-30T05:02:41.216Z,101.25
2019-05-30T05:03:45.757Z,101.25
2019-05-30T05:04:42.207Z,101.25
2019-05-30T05:05:41.170Z,101.25
2019-05-30T05:06:51.313Z,106.88
2019-05-30T05:07:41.152Z,106.88
2019-05-30T05:08:41.144Z,106.88
2019-05-30T05:09:41.127Z,106.88
2019-05-30T05:10:41.103Z,106.88
2019-05-30T05:11:41.104Z,106.88
2019-05-30T05:12:41.103Z,106.88
2019-05-30T05:13:41.931Z,106.88
2019-05-30T05:14:41.070Z,106.88
2019-05-30T05:15:41.071Z,106.88
2019-05-30T05:16:41.058Z,112.50
2019-05-30T05:17:41.074Z,112.50
2019-05-30T05:18:41.047Z,112.50
2019-05-30T05:19:41.020Z,112.50
2019-05-30T05:20:41.018Z,112.50
2019-05-30T05:21:40.999Z,112.50
2019-05-30T05:22:40.990Z,112.50
2019-05-30T05:23:41.030Z,112.50
2019-05-30T05:24:40.993Z,112.50
2019-05-30T05:25:40.971Z,112.50
2019-05-30T05:26:40.951Z,112.50
2019-05-30T05:27:41.592Z,112.50
2019-05-30T05:28:40.954Z,112.50
2019-05-30T05:29:40.922Z,118.12
2019-05-30T05:30:40.929Z,118.12
2019-05-30T05:31:40.893Z,118.12
2019-05-30T05:32:41.624Z,118.12
2019-05-30T05:33:55.692Z,118.12
2019-05-30T05:34:41.885Z,118.12
2019-05-30T05:35:40.897Z,118.12
2019-05-30T05:36:40.857Z,118.12
2019-05-30T05:37:50.976Z,118.12
2019-05-30T05:38:40.847Z,118.12
2019-05-30T05:39:40.806Z,118.12
2019-05-30T05:40:40.836Z,118.12
2019-05-30T05:41:40.784Z,118.12
2019-05-30T05:42:40.777Z,118.12
2019-05-30T05:43:40.754Z,118.12
2019-05-30T05:44:40.764Z,118.12
2019-05-30T05:45:40.745Z,118.12
2019-05-30T05:46:40.736Z,118.12
2019-05-30T05:47:40.715Z,118.12
2019-05-30T05:48:40.726Z,118.12
2019-05-30T05:49:40.708Z,118.12
2019-05-30T05:50:40.682Z,118.12
2019-05-30T05:51:40.691Z,118.12
2019-05-30T05:52:40.660Z,118.12
2019-05-30T05:53:40.644Z,118.12
2019-05-30T05:54:40.648Z,118.12
2019-05-30T05:55:40.650Z,118.12
2019-05-30T05:56:40.619Z,118.12
2019-05-30T05:57:40.621Z,118.12
2019-05-30T05:58:40.615Z,118.12
2019-05-30T05:59:40.662Z,118.12
2019-05-30T06:00:40.591Z,118.12
2019-05-30T06:01:40.621Z,118.12
2019-05-30T06:02:40.592Z,123.75
2019-05-30T06:03:40.540Z,123.75
2019-05-30T06:04:40.550Z,123.75
2019-05-30T06:05:52.577Z,123.75
2019-05-30T06:06:41.579Z,123.75
2019-05-30T06:07:40.511Z,123.75
2019-05-30T06:08:50.480Z,123.75
2019-05-30T06:09:40.488Z,123.75
2019-05-30T06:10:40.468Z,123.75
2019-05-30T06:11:40.459Z,123.75
2019-05-30T06:12:40.475Z,123.75
2019-05-30T06:13:40.446Z,123.75
2019-05-30T06:14:40.446Z,123.75
2019-05-30T06:15:40.429Z,123.75
2019-05-30T06:16:40.428Z,129.38
2019-05-30T06:17:40.416Z,129.38
2019-05-30T06:18:40.425Z,129.38
2019-05-30T06:37:40.207Z,135.00
2019-05-30T06:38:40.196Z,135.00
2019-05-30T06:39:51.370Z,135.00
2019-05-30T06:46:40.110Z,135.00
2019-05-30T07:09:39.858Z,146.25
2019-05-30T07:10:50.055Z,146.25
2019-05-30T07:17:39.751Z,146.25
2019-05-30T07:39:39.533Z,151.88
2019-05-30T07:40:39.534Z,151.88
2019-05-30T07:48:39.423Z,157.50
2019-05-30T08:10:39.214Z,151.88
2019-05-30T08:11:39.259Z,151.88
2019-05-30T08:19:39.097Z,151.88
2019-05-30T08:42:40.179Z,157.50
2019-05-30T08:50:44.071Z,163.12
2019-05-30T09:12:40.394Z,174.38
2019-05-30T09:13:38.902Z,174.38
2019-05-30T09:21:39.769Z,174.38
2019-05-30T09:44:38.199Z,196.88
2019-05-30T09:52:38.092Z,202.50
2019-05-30T09:53:38.109Z,202.50
2019-05-30T09:55:38.074Z,202.50
2019-05-30T09:56:38.070Z,208.12
2019-05-30T09:57:38.039Z,213.75
2019-05-30T09:58:38.064Z,208.12
2019-05-30T09:59:38.052Z,208.12
2019-05-30T10:00:38.098Z,208.12
2019-05-30T10:01:38.013Z,208.12
2019-05-30T10:02:38.004Z,208.12
2019-05-30T10:03:37.979Z,208.12
2019-05-30T10:04:38.003Z,157.50
2019-05-30T10:05:37.950Z,208.12
2019-05-30T10:06:37.972Z,202.50
2019-05-30T10:07:37.930Z,213.75
2019-05-30T10:08:37.960Z,196.88
2019-05-30T10:09:37.941Z,196.88
2019-05-30T10:10:37.899Z,196.88
2019-05-30T10:11:37.899Z,196.88
2019-05-30T10:12:37.922Z,196.88
2019-05-30T10:13:37.923Z,202.50
2019-05-30T10:14:37.867Z,202.50
2019-05-30T10:15:37.879Z,202.50
2019-05-30T10:16:54.356Z,202.50
2019-05-30T10:18:37.824Z,219.38
2019-05-30T10:19:37.831Z,219.38
2019-05-30T10:20:37.803Z,219.38
2019-05-30T10:21:37.780Z,219.38
2019-05-30T10:22:37.773Z,219.38
2019-05-30T10:23:37.840Z,219.38
2019-05-30T10:24:37.749Z,219.38
2019-05-30T10:26:37.774Z,225.00
2019-05-30T10:27:37.749Z,225.00
2019-05-30T10:28:37.733Z,225.00
2019-05-30T10:29:37.711Z,225.00
2019-05-30T10:30:37.773Z,225.00
2019-05-30T10:31:37.706Z,225.00
2019-05-30T10:32:37.662Z,225.00
2019-05-30T10:33:37.663Z,225.00
2019-05-30T10:34:37.648Z,225.00
2019-05-30T10:35:37.660Z,225.00
2019-05-30T10:36:44.120Z,225.00
2019-05-30T10:37:38.623Z,225.00
2019-05-30T10:38:37.628Z,225.00
2019-05-30T10:39:37.613Z,230.62
2019-05-30T10:40:37.634Z,236.25
2019-05-30T10:41:37.569Z,236.25
2019-05-30T10:42:37.591Z,236.25
2019-05-30T10:43:37.570Z,236.25
2019-05-30T10:44:37.580Z,230.62
2019-05-30T10:45:38.742Z,230.62
2019-05-30T10:46:37.529Z,230.62
2019-05-30T10:47:47.623Z,230.62
2019-05-30T10:49:37.498Z,230.62
2019-05-30T10:50:37.489Z,230.62
2019-05-30T10:51:37.496Z,241.88
2019-05-30T10:52:37.466Z,236.25
2019-05-30T10:53:37.864Z,236.25
2019-05-30T10:54:37.451Z,236.25
2019-05-30T10:55:37.447Z,236.25
2019-05-30T10:57:37.490Z,236.25
2019-05-30T10:58:37.421Z,236.25
2019-05-30T10:59:37.383Z,241.88
2019-05-30T11:00:37.387Z,241.88
2019-05-30T11:01:37.363Z,247.50
2019-05-30T11:02:37.363Z,247.50
2019-05-30T11:03:37.357Z,247.50
2019-05-30T11:04:37.346Z,253.12
2019-05-30T11:05:37.335Z,258.75
2019-05-30T11:06:37.367Z,253.12
2019-05-30T11:07:37.327Z,253.12
2019-05-30T11:08:37.301Z,247.50
2019-05-30T11:09:37.296Z,247.50
2019-05-30T11:10:37.300Z,241.88
2019-05-30T11:11:37.276Z,241.88
2019-05-30T11:12:37.284Z,241.88
2019-05-30T11:13:37.253Z,241.88
2019-05-30T11:14:37.258Z,247.50
2019-05-30T11:15:37.226Z,247.50
2019-05-30T11:16:37.217Z,241.88
2019-05-30T11:17:37.234Z,270.00
2019-05-30T11:18:47.522Z,95.62
2019-05-30T11:20:37.169Z,264.38
2019-05-30T11:21:37.162Z,264.38
2019-05-30T11:22:37.150Z,264.38
2019-05-30T11:23:37.151Z,258.75
2019-05-30T11:24:37.131Z,258.75
2019-05-30T11:25:37.121Z,258.75
2019-05-30T11:26:37.097Z,258.75
2019-05-30T11:28:37.107Z,270.00
2019-05-30T11:29:37.417Z,270.00
2019-05-30T11:30:37.067Z,101.25
2019-05-30T11:31:37.052Z,90.00
2019-05-30T11:32:37.049Z,90.00
2019-05-30T11:33:37.038Z,84.38
2019-05-30T11:34:37.047Z,258.75
2019-05-30T11:35:37.026Z,270.00
2019-05-30T11:36:36.999Z,264.38
2019-05-30T11:37:37.000Z,264.38
2019-05-30T11:38:36.979Z,106.88
2019-05-30T11:39:36.980Z,185.62
2019-05-30T11:40:36.969Z,264.38
2019-05-30T11:41:36.950Z,258.75
2019-05-30T11:42:36.929Z,258.75
2019-05-30T11:43:36.921Z,258.75
2019-05-30T11:44:36.946Z,258.75
2019-05-30T11:45:36.899Z,258.75
2019-05-30T11:46:36.887Z,258.75
2019-05-30T11:47:36.890Z,264.38
2019-05-30T11:48:36.889Z,213.75
2019-05-30T11:49:46.962Z,191.25
2019-05-30T11:51:36.832Z,270.00
2019-05-30T11:52:36.834Z,275.62
2019-05-30T11:53:36.824Z,270.00
2019-05-30T11:54:36.803Z,236.25
2019-05-30T11:55:36.817Z,264.38
2019-05-30T11:56:36.804Z,264.38
2019-05-30T11:57:36.802Z,253.12
2019-05-30T11:58:36.775Z,247.50
2019-05-30T11:59:36.751Z,241.88
2019-05-30T12:00:36.751Z,247.50
2019-05-30T12:01:36.751Z,247.50
2019-05-30T12:02:36.721Z,241.88
2019-05-30T12:03:36.726Z,241.88
2019-05-30T12:04:36.703Z,241.88
2019-05-30T12:05:36.715Z,236.25
2019-05-30T12:06:36.682Z,236.25
2019-05-30T12:07:37.072Z,236.25
2019-05-30T12:08:36.664Z,236.25
2019-05-30T12:09:36.664Z,236.25
2019-05-30T12:10:36.663Z,236.25
2019-05-30T12:11:36.638Z,236.25
2019-05-30T12:12:36.656Z,236.25
2019-05-30T12:13:36.615Z,230.62
2019-05-30T12:14:36.592Z,230.62
2019-05-30T12:15:36.602Z,230.62
2019-05-30T12:16:36.977Z,230.62
2019-05-30T12:17:36.583Z,230.62
2019-05-30T12:18:36.671Z,225.00
2019-05-30T12:19:36.543Z,225.00
2019-05-30T12:20:47.145Z,230.62
2019-05-30T12:21:36.525Z,230.62
2019-05-30T12:22:36.517Z,230.62
2019-05-30T12:23:36.555Z,230.62
2019-05-30T12:24:36.483Z,230.62
2019-05-30T12:25:36.473Z,230.62
2019-05-30T12:26:36.472Z,219.38
2019-05-30T12:27:36.490Z,219.38
2019-05-30T12:28:36.446Z,213.75
2019-05-30T12:29:36.447Z,219.38
2019-05-30T12:30:36.442Z,219.38
2019-05-30T12:31:36.433Z,219.38
2019-05-30T12:32:36.414Z,219.38
2019-05-30T12:33:36.425Z,219.38
2019-05-30T12:34:36.398Z,208.12
2019-05-30T12:35:36.452Z,213.75
2019-05-30T12:36:36.384Z,213.75
2019-05-30T12:37:52.969Z,208.12
2019-05-30T12:38:37.344Z,208.12
2019-05-30T12:39:36.343Z,202.50
2019-05-30T12:40:36.362Z,213.75
2019-05-30T12:41:36.315Z,208.12
2019-05-30T12:42:36.293Z,213.75
2019-05-30T12:43:36.293Z,202.50
2019-05-30T12:44:36.325Z,202.50
2019-05-30T12:45:36.288Z,213.75
2019-05-30T12:46:36.265Z,208.12
2019-05-30T12:47:36.251Z,202.50
2019-05-30T12:48:36.244Z,208.12
2019-05-30T12:49:36.225Z,202.50
2019-05-30T12:50:36.229Z,196.88
2019-05-30T12:51:46.467Z,196.88
2019-05-30T12:52:36.206Z,196.88
2019-05-30T12:53:36.188Z,202.50
2019-05-30T12:54:36.167Z,196.88
2019-05-30T12:55:37.684Z,191.25
2019-05-30T12:56:36.153Z,191.25
2019-05-30T12:57:36.168Z,191.25
2019-05-30T12:58:36.160Z,191.25
2019-05-30T12:59:36.138Z,185.62
2019-05-30T13:00:36.108Z,191.25
2019-05-30T13:01:36.107Z,185.62
2019-05-30T13:02:36.098Z,191.25
2019-05-30T13:03:36.115Z,196.88
2019-05-30T13:04:36.116Z,185.62
2019-05-30T13:05:36.069Z,180.00
2019-05-30T13:06:36.052Z,191.25
2019-05-30T13:07:36.048Z,185.62
2019-05-30T13:08:36.036Z,185.62
2019-05-30T13:09:36.030Z,185.62
2019-05-30T13:10:36.044Z,180.00
2019-05-30T13:11:36.031Z,185.62
2019-05-30T13:12:35.975Z,185.62
2019-05-30T13:13:35.973Z,185.62
2019-05-30T13:14:35.962Z,180.00
2019-05-30T13:15:35.946Z,174.38
2019-05-30T13:16:35.976Z,185.62
2019-05-30T13:17:35.932Z,174.38
2019-05-30T13:18:35.971Z,174.38
2019-05-30T13:19:35.904Z,174.38
2019-05-30T13:20:35.904Z,174.38
2019-05-30T13:21:35.899Z,174.38
2019-05-30T13:22:46.630Z,174.38
2019-05-30T13:23:35.938Z,174.38
2019-05-30T13:24:35.871Z,174.38
2019-05-30T13:25:35.858Z,174.38
2019-05-30T13:26:35.849Z,174.38
2019-05-30T13:27:35.828Z,174.38
2019-05-30T13:28:35.822Z,174.38
2019-05-30T13:29:35.817Z,174.38
2019-05-30T13:30:35.812Z,174.38
2019-05-30T13:31:35.802Z,174.38
2019-05-30T13:32:35.791Z,174.38
2019-05-30T13:33:38.310Z,174.38
2019-05-30T13:34:35.768Z,174.38
2019-05-30T13:35:35.754Z,174.38
2019-05-30T13:36:35.737Z,174.38
2019-05-30T13:37:35.791Z,174.38
2019-05-30T13:38:35.722Z,174.38
2019-05-30T13:39:35.699Z,174.38
2019-05-30T13:40:35.716Z,174.38
2019-05-30T13:41:35.733Z,174.38
2019-05-30T13:42:35.689Z,174.38
2019-05-30T13:43:35.706Z,174.38
2019-05-30T13:44:35.661Z,180.00
2019-05-30T13:45:35.642Z,174.38
2019-05-30T13:46:35.628Z,174.38
2019-05-30T13:47:35.636Z,174.38
2019-05-30T13:48:35.639Z,174.38
2019-05-30T13:49:35.588Z,174.38
2019-05-30T13:50:35.594Z,174.38
2019-05-30T13:51:35.588Z,174.38
2019-05-30T13:52:35.558Z,174.38
2019-05-30T13:53:47.274Z,174.38
2019-05-30T13:54:35.547Z,174.38
2019-05-30T13:55:35.538Z,174.38
2019-05-30T13:56:35.530Z,174.38
2019-05-30T13:57:35.515Z,174.38
2019-05-30T13:58:35.518Z,174.38
2019-05-30T13:59:35.513Z,174.38
2019-05-30T14:00:35.483Z,174.38
2019-05-30T14:01:35.493Z,174.38
2019-05-30T14:02:35.475Z,174.38
2019-05-30T14:03:35.448Z,180.00
2019-05-30T14:04:35.863Z,174.38
2019-05-30T14:05:35.440Z,174.38
2019-05-30T14:06:35.422Z,174.38
2019-05-30T14:07:35.413Z,174.38
2019-05-30T14:08:41.567Z,174.38
2019-05-30T14:09:36.396Z,180.00
2019-05-30T14:10:35.391Z,174.38
2019-05-30T14:11:35.385Z,174.38
2019-05-30T14:12:35.354Z,174.38
2019-05-30T14:13:35.385Z,174.38
2019-05-30T14:14:35.336Z,174.38
2019-05-30T14:15:35.353Z,174.38
2019-05-30T14:16:35.331Z,174.38
2019-05-30T14:17:35.322Z,174.38
2019-05-30T14:18:35.391Z,174.38
2019-05-30T14:19:35.296Z,174.38
2019-05-30T14:20:35.264Z,180.00
2019-05-30T14:21:35.267Z,180.00
2019-05-30T14:22:35.256Z,180.00
2019-05-30T14:23:35.259Z,180.00
2019-05-30T14:24:45.218Z,180.00
2019-05-30T14:25:35.230Z,180.00
2019-05-30T14:26:35.208Z,180.00
2019-05-30T14:27:35.189Z,180.00
2019-05-30T14:28:35.192Z,180.00
2019-05-30T14:29:35.181Z,180.00
2019-05-30T14:30:35.179Z,180.00
2019-05-30T14:31:35.162Z,185.62
2019-05-30T14:32:35.160Z,180.00
2019-05-30T14:33:35.139Z,180.00
2019-05-30T14:34:35.147Z,180.00
2019-05-30T14:35:35.116Z,180.00
2019-05-30T14:36:35.097Z,180.00
2019-05-30T14:37:35.090Z,180.00
2019-05-30T14:38:35.082Z,180.00
2019-05-30T14:39:35.085Z,180.00
2019-05-30T14:40:35.070Z,180.00
2019-05-30T14:41:35.105Z,185.62
2019-05-30T14:42:35.028Z,185.62
2019-05-30T14:43:35.057Z,185.62
2019-05-30T14:44:35.037Z,185.62
2019-05-30T14:45:35.017Z,185.62
2019-05-30T14:46:35.002Z,185.62
2019-05-30T14:47:35.019Z,185.62
2019-05-30T14:48:35.065Z,180.00
2019-05-30T14:49:34.976Z,185.62
2019-05-30T14:50:34.969Z,185.62
2019-05-30T14:51:35.505Z,185.62
2019-05-30T14:52:34.926Z,185.62
2019-05-30T14:53:34.927Z,185.62
2019-05-30T14:54:34.912Z,185.62
2019-05-30T14:56:34.887Z,191.25
2019-05-30T14:57:34.886Z,191.25
2019-05-30T14:58:34.864Z,191.25
2019-05-30T14:59:34.862Z,191.25
2019-05-30T15:00:34.853Z,185.62
2019-05-30T15:01:34.848Z,191.25
2019-05-30T15:02:34.869Z,191.25
2019-05-30T15:03:34.821Z,185.62
2019-05-30T15:04:34.826Z,191.25
2019-05-30T15:05:34.805Z,191.25
2019-05-30T15:06:34.794Z,191.25
2019-05-30T15:07:34.784Z,191.25
2019-05-30T15:08:34.784Z,191.25
2019-05-30T15:09:34.752Z,191.25
2019-05-30T15:10:34.773Z,191.25
2019-05-30T15:11:34.734Z,191.25
2019-05-30T15:12:34.731Z,191.25
2019-05-30T15:13:34.723Z,191.25
2019-05-30T15:14:34.739Z,191.25
2019-05-30T15:15:34.717Z,191.25
2019-05-30T15:16:34.701Z,191.25
2019-05-30T15:17:34.682Z,191.25
2019-05-30T15:18:34.683Z,191.25
2019-05-30T15:19:34.640Z,185.62
2019-05-30T15:20:34.645Z,185.62
2019-05-30T15:21:34.621Z,191.25
2019-05-30T15:22:34.611Z,191.25
2019-05-30T15:23:34.611Z,191.25
2019-05-30T15:24:34.606Z,191.25
2019-05-30T15:25:34.600Z,196.88
2019-05-30T15:27:34.571Z,196.88
2019-05-30T15:28:34.585Z,196.88
2019-05-30T15:29:34.535Z,196.88
2019-05-30T15:30:34.563Z,196.88
2019-05-30T15:31:34.537Z,196.88
2019-05-30T15:32:34.506Z,196.88
2019-05-30T15:33:34.497Z,196.88
2019-05-30T15:34:34.545Z,196.88
2019-05-30T15:35:34.491Z,196.88
2019-05-30T15:36:34.535Z,196.88
2019-05-30T15:37:34.487Z,196.88
2019-05-30T15:38:34.457Z,196.88
2019-05-30T15:39:34.434Z,196.88
2019-05-30T15:40:34.450Z,202.50
2019-05-30T15:41:34.414Z,202.50
2019-05-30T15:42:34.406Z,202.50
2019-05-30T15:43:34.398Z,202.50
2019-05-30T15:44:34.385Z,208.12
2019-05-30T15:45:34.405Z,202.50
2019-05-30T15:46:34.377Z,208.12
2019-05-30T15:47:34.373Z,202.50
2019-05-30T15:48:34.355Z,202.50
2019-05-30T15:49:34.357Z,208.12
2019-05-30T15:50:34.314Z,208.12
2019-05-30T15:51:34.336Z,208.12
2019-05-30T15:52:34.306Z,208.12
2019-05-30T15:53:34.353Z,208.12
2019-05-30T15:54:34.287Z,208.12
2019-05-30T15:55:34.288Z,208.12
2019-05-30T15:56:34.418Z,208.12
2019-05-30T15:58:34.239Z,208.12
2019-05-30T15:59:34.216Z,208.12
2019-05-30T16:00:36.924Z,208.12
2019-05-30T16:01:34.209Z,208.12
2019-05-30T16:02:34.207Z,208.12
2019-05-30T16:03:34.189Z,208.12
2019-05-30T16:04:34.169Z,208.12
2019-05-30T16:05:34.171Z,208.12